Time;durP1;ratioP1;P1;durP2;ratioP2;P2;SDS_P1;SDS_P2;PMS_P1;PMS_P2;Temp;Humidity;BMP_temperature;BMP_pressure;BME280_temperature;BME280_humidity;BME280_pressure;Samples;Min_cycle;Max_cycle;Signal;HPM_P1;HPM_P2
2023/04/22 00:02:13;;;;;;;6.30;3.78;;;10.20;65.90;;;;;;4997083;28;20053;-76
2023/04/22 00:04:40;;;;;;;6.85;3.75;;;10.10;66.50;;;;;;5003278;28;20084;-76
2023/04/22 00:07:06;;;;;;;6.75;3.78;;;10.10;66.30;;;;;;4997907;28;20443;-76
2023/04/22 00:09:31;;;;;;;5.55;3.28;;;10.00;66.50;;;;;;5003637;28;20064;-76
2023/04/22 00:11:57;;;;;;;6.30;3.65;;;10.00;66.60;;;;;;5004862;28;20083;-76
2023/04/22 00:14:26;;;;;;;6.93;3.25;;;10.00;66.60;;;;;;5006222;28;20032;-76
2023/04/22 00:16:51;;;;;;;9.85;3.80;;;10.10;66.30;;;;;;5004588;28;20033;-77
2023/04/22 00:19:17;;;;;;;6.05;3.70;;;10.00;66.50;;;;;;5011084;28;20079;-77
2023/04/22 00:21:42;;;;;;;10.60;4.00;;;10.00;67.00;;;;;;5005992;28;20057;-76
2023/04/22 00:24:08;;;;;;;7.07;3.80;;;9.90;66.90;;;;;;5004736;28;20065;-76
2023/04/22 00:26:33;;;;;;;7.57;3.72;;;9.80;67.40;;;;;;5003222;28;20336;-75
2023/04/22 00:28:59;;;;;;;6.00;3.70;;;10.00;66.60;;;;;;5007589;28;20414;-77
2023/04/22 00:31:24;;;;;;;7.57;3.70;;;10.00;66.60;;;;;;5006056;28;20030;-78
2023/04/22 00:33:50;;;;;;;8.40;3.42;;;10.00;66.50;;;;;;5003415;28;20350;-76
2023/04/22 00:36:15;;;;;;;8.07;4.03;;;9.90;66.90;;;;;;5006064;28;20056;-78
2023/04/22 00:38:48;;;;;;;10.88;3.78;;;9.80;67.10;;;;;;5003471;28;20061;-77
2023/04/22 00:41:13;;;;;;;7.05;3.63;;;9.90;66.70;;;;;;5003610;28;20427;-76
2023/04/22 00:43:39;;;;;;;8.48;3.90;;;9.90;66.80;;;;;;5003684;28;20041;-77
2023/04/22 00:46:05;;;;;;;7.28;3.55;;;9.90;66.80;;;;;;5016228;28;20360;-77
2023/04/22 00:48:31;;;;;;;8.80;3.70;;;10.00;66.30;;;;;;4992657;28;20140;-77
2023/04/22 00:50:56;;;;;;;9.32;3.90;;;9.90;66.80;;;;;;4998456;28;20057;-76
2023/04/22 00:53:22;;;;;;;9.25;4.00;;;9.90;66.50;;;;;;4994910;28;20030;-77
2023/04/22 00:55:47;;;;;;;7.65;3.63;;;10.00;66.40;;;;;;4997127;28;20045;-78
2023/04/22 00:58:13;;;;;;;8.85;3.65;;;9.80;67.10;;;;;;4992531;28;20374;-77
2023/04/22 01:00:39;;;;;;;8.70;4.07;;;9.90;66.60;;;;;;5004158;28;20045;-78
2023/04/22 01:03:06;;;;;;;6.60;3.75;;;9.90;66.40;;;;;;4995343;28;20034;-77
2023/04/22 01:05:32;;;;;;;6.40;3.53;;;9.90;66.80;;;;;;4994003;28;20037;-77
2023/04/22 01:07:58;;;;;;;5.85;3.70;;;10.00;66.40;;;;;;5005406;28;20156;-77
2023/04/22 01:10:23;;;;;;;6.97;3.80;;;9.90;66.40;;;;;;4995591;28;20026;-76
2023/04/22 01:12:49;;;;;;;8.45;4.25;;;10.00;66.30;;;;;;4996069;28;20355;-77
2023/04/22 01:15:15;;;;;;;9.52;3.90;;;10.00;66.30;;;;;;5005352;28;20111;-76
2023/04/22 01:17:40;;;;;;;7.65;3.72;;;10.00;66.00;;;;;;5000366;28;20049;-80
2023/04/22 01:20:09;;;;;;;11.13;4.05;;;10.00;66.40;;;;;;4999223;28;20103;-77
2023/04/22 01:22:39;;;;;;;9.88;4.25;;;9.90;66.70;;;;;;4996010;28;20041;-77
2023/04/22 01:25:05;;;;;;;7.13;3.47;;;9.80;66.60;;;;;;5006519;28;20080;-77
2023/04/22 01:27:31;;;;;;;7.18;3.72;;;9.80;66.90;;;;;;5002686;28;20018;-77
2023/04/22 01:29:57;;;;;;;6.13;4.07;;;9.80;67.00;;;;;;5004588;28;20084;-77
2023/04/22 01:32:23;;;;;;;8.50;3.85;;;9.80;67.20;;;;;;4998188;28;20038;-76
2023/04/22 01:34:48;;;;;;;6.95;3.92;;;9.70;67.20;;;;;;4998348;28;20037;-76
2023/04/22 01:37:14;;;;;;;6.80;4.15;;;9.70;67.40;;;;;;5002151;28;20553;-76
2023/04/22 01:39:39;;;;;;;6.18;3.88;;;9.60;67.60;;;;;;5002988;28;20088;-77
2023/04/22 01:42:05;;;;;;;7.45;3.83;;;9.70;67.60;;;;;;5001441;28;20046;-76
2023/04/22 01:44:31;;;;;;;8.18;4.55;;;9.70;67.50;;;;;;4993044;28;20038;-76
2023/04/22 01:46:56;;;;;;;14.80;4.30;;;9.70;67.30;;;;;;5002541;28;20129;-76
2023/04/22 01:49:22;;;;;;;6.07;3.67;;;9.80;67.30;;;;;;5002312;28;20041;-76
2023/04/22 01:51:47;;;;;;;9.55;4.20;;;10.00;66.80;;;;;;4991005;28;20033;-77
2023/04/22 01:54:13;;;;;;;9.77;4.32;;;9.90;67.10;;;;;;5005536;28;20153;-76
2023/04/22 01:56:40;;;;;;;7.43;4.28;;;9.80;66.90;;;;;;5007468;28;20026;-77
2023/04/22 01:59:06;;;;;;;10.23;4.32;;;10.00;66.70;;;;;;5005414;28;20372;-76
2023/04/22 02:01:32;;;;;;;9.88;4.30;;;9.80;67.30;;;;;;5009329;28;20431;-76
2023/04/22 02:03:57;;;;;;;7.25;3.97;;;9.80;67.40;;;;;;4997629;28;20022;-76
2023/04/22 02:06:23;;;;;;;8.68;4.53;;;9.80;67.30;;;;;;5007597;28;20112;-76
2023/04/22 02:08:49;;;;;;;7.25;4.78;;;9.70;67.90;;;;;;5005575;28;20370;-78
2023/04/22 02:11:14;;;;;;;9.95;4.80;;;9.70;67.80;;;;;;5010631;28;20044;-76
2023/04/22 02:13:40;;;;;;;8.48;5.03;;;9.70;68.20;;;;;;5007489;28;20026;-77
2023/04/22 02:16:06;;;;;;;10.18;4.25;;;9.80;67.60;;;;;;5008745;28;20041;-78
2023/04/22 02:18:32;;;;;;;9.15;4.50;;;9.80;67.70;;;;;;5006056;28;20030;-76
2023/04/22 02:20:58;;;;;;;6.30;4.40;;;9.70;68.10;;;;;;5002005;28;20378;-76
2023/04/22 02:23:24;;;;;;;6.85;4.78;;;9.80;67.70;;;;;;5006231;28;20045;-76
2023/04/22 02:25:51;;;;;;;6.72;4.57;;;9.90;67.20;;;;;;5007460;28;20124;-77
2023/04/22 02:28:17;;;;;;;7.40;4.75;;;9.80;67.80;;;;;;4998722;28;20053;-76
2023/04/22 02:30:44;;;;;;;8.40;4.75;;;9.80;67.90;;;;;;5008012;28;20033;-76
2023/04/22 02:33:09;;;;;;;9.10;4.60;;;9.80;67.90;;;;;;5006582;28;20094;-75
2023/04/22 02:35:35;;;;;;;10.85;5.32;;;9.80;68.00;;;;;;5006084;28;20030;-77
2023/04/22 02:38:00;;;;;;;7.88;5.05;;;9.70;68.10;;;;;;4994698;28;20408;-76
2023/04/22 02:40:26;;;;;;;12.57;5.32;;;9.80;68.10;;;;;;5014505;28;20037;-76
2023/04/22 02:42:51;;;;;;;7.80;4.68;;;9.70;68.20;;;;;;5009159;28;20404;-76
2023/04/22 02:45:17;;;;;;;8.45;4.75;;;9.70;68.30;;;;;;5003765;28;20045;-76
2023/04/22 02:47:42;;;;;;;8.52;4.75;;;9.60;68.50;;;;;;5003385;28;20030;-79
2023/04/22 02:50:08;;;;;;;9.05;4.65;;;9.70;68.80;;;;;;5002549;28;20029;-77
2023/04/22 02:52:34;;;;;;;9.18;5.00;;;9.70;68.60;;;;;;5005665;28;20022;-77
2023/04/22 02:54:59;;;;;;;9.85;4.65;;;9.70;68.70;;;;;;5000855;28;20022;-76
2023/04/22 02:57:25;;;;;;;9.45;5.50;;;9.60;68.90;;;;;;5005667;28;20025;-74
2023/04/22 02:59:52;;;;;;;7.60;5.18;;;9.70;68.70;;;;;;5004699;28;20085;-77
2023/04/22 03:02:18;;;;;;;8.00;4.68;;;9.70;68.90;;;;;;4999943;28;20132;-77
2023/04/22 03:04:43;;;;;;;8.02;5.32;;;9.60;69.20;;;;;;5002381;28;20085;-77
2023/04/22 03:07:09;;;;;;;8.50;4.97;;;9.60;68.90;;;;;;5006201;28;20454;-77
2023/04/22 03:09:34;;;;;;;9.48;5.55;;;9.60;69.30;;;;;;5004889;28;20105;-76
2023/04/22 03:12:01;;;;;;;7.93;5.85;;;9.70;68.70;;;;;;5007061;28;20026;-77
2023/04/22 03:14:26;;;;;;;9.73;5.15;;;9.80;68.70;;;;;;5002072;28;20122;-77
2023/04/22 03:16:52;;;;;;;8.80;4.97;;;9.60;69.20;;;;;;5005520;28;20129;-77
2023/04/22 03:19:17;;;;;;;10.43;5.05;;;9.60;69.40;;;;;;5003135;28;20443;-77
2023/04/22 03:21:43;;;;;;;9.35;5.93;;;9.60;69.30;;;;;;5002580;28;20359;-77
2023/04/22 03:24:08;;;;;;;8.35;5.53;;;9.70;69.00;;;;;;5028420;28;20370;-78
2023/04/22 03:26:34;;;;;;;7.93;5.18;;;9.60;69.70;;;;;;5003374;28;20113;-77
2023/04/22 03:29:00;;;;;;;7.63;4.80;;;9.60;69.40;;;;;;4998381;28;20022;-79
2023/04/22 03:31:26;;;;;;;8.70;5.32;;;9.50;69.70;;;;;;5004275;28;20067;-77
2023/04/22 03:33:51;;;;;;;10.25;6.35;;;9.40;70.30;;;;;;5001796;28;20364;-77
2023/04/22 03:36:18;;;;;;;12.27;5.57;;;9.50;70.20;;;;;;5001615;28;20486;-76
2023/04/22 03:38:43;;;;;;;9.70;5.75;;;9.30;70.90;;;;;;5003576;28;20022;-79
2023/04/22 03:41:09;;;;;;;8.63;5.65;;;9.30;71.00;;;;;;5003635;28;20486;-77
2023/04/22 03:43:34;;;;;;;9.43;5.90;;;9.30;71.10;;;;;;5004904;28;20038;-76
2023/04/22 03:46:00;;;;;;;10.02;5.80;;;9.20;71.30;;;;;;5004981;28;20034;-77
2023/04/22 03:48:27;;;;;;;9.38;5.85;;;9.20;71.10;;;;;;5003014;28;20022;-77
2023/04/22 03:50:53;;;;;;;12.10;5.95;;;9.40;71.00;;;;;;4999711;28;20077;-77
2023/04/22 03:53:18;;;;;;;9.90;6.18;;;9.50;71.00;;;;;;5001061;28;20473;-79
2023/04/22 03:55:44;;;;;;;8.93;6.13;;;9.50;70.80;;;;;;5007718;28;20026;-77
2023/04/22 03:58:09;;;;;;;11.00;6.10;;;9.30;71.30;;;;;;5003185;28;20477;-78
2023/04/22 04:00:35;;;;;;;11.02;6.22;;;9.30;71.50;;;;;;5014712;28;20485;-77
2023/04/22 04:03:00;;;;;;;14.35;5.80;;;9.30;71.60;;;;;;4998462;28;20607;-76
2023/04/22 04:05:26;;;;;;;8.73;6.00;;;9.40;71.80;;;;;;5008151;28;20036;-78
2023/04/22 04:07:51;;;;;;;10.50;6.65;;;9.40;71.50;;;;;;5003734;28;20048;-78
2023/04/22 04:10:17;;;;;;;14.55;6.28;;;9.40;71.80;;;;;;5016073;28;20465;-77
2023/04/22 04:12:42;;;;;;;9.35;6.03;;;9.40;71.70;;;;;;5024776;28;20112;-77
2023/04/22 04:15:08;;;;;;;10.45;6.07;;;9.50;71.30;;;;;;5012467;28;20567;-76
2023/04/22 04:17:33;;;;;;;11.73;6.55;;;9.60;71.10;;;;;;4998106;28;20026;-77
2023/04/22 04:19:59;;;;;;;10.73;6.57;;;9.50;71.40;;;;;;5013316;28;20021;-77
2023/04/22 04:22:26;;;;;;;12.90;6.68;;;9.50;71.30;;;;;;5012903;28;20037;-78
2023/04/22 04:24:54;;;;;;;12.20;5.93;;;9.50;71.50;;;;;;5003152;28;20063;-79
2023/04/22 04:27:22;;;;;;;10.25;6.60;;;9.50;71.40;;;;;;5000625;28;20037;-77
2023/04/22 04:29:48;;;;;;;9.38;6.38;;;9.60;71.30;;;;;;5000175;28;20117;-78
2023/04/22 04:32:14;;;;;;;12.40;6.70;;;9.60;71.50;;;;;;5001077;28;20212;-78
2023/04/22 04:34:41;;;;;;;10.07;6.70;;;9.50;71.90;;;;;;5008730;28;20444;-78
2023/04/22 04:37:06;;;;;;;10.27;6.30;;;9.50;71.80;;;;;;5003835;28;20285;-77
2023/04/22 04:39:32;;;;;;;10.60;5.82;;;9.60;71.80;;;;;;4998937;28;20117;-78
2023/04/22 04:41:59;;;;;;;9.95;6.85;;;9.70;71.20;;;;;;5007134;28;20034;-78
2023/04/22 04:44:30;;;;;;;12.25;7.07;;;9.70;71.50;;;;;;5002953;28;20042;-78
2023/04/22 04:46:56;;;;;;;10.80;6.97;;;9.70;71.50;;;;;;5001661;28;20030;-78
2023/04/22 04:49:22;;;;;;;9.52;5.82;;;9.80;71.40;;;;;;5001552;28;20041;-78
2023/04/22 04:51:48;;;;;;;9.77;6.90;;;9.90;71.00;;;;;;5004753;28;20038;-78
2023/04/22 04:54:14;;;;;;;10.00;6.35;;;10.00;70.30;;;;;;4995686;28;20022;-76
2023/04/22 04:56:39;;;;;;;15.20;6.95;;;10.10;69.90;;;;;;5001107;28;20414;-78
2023/04/22 04:59:05;;;;;;;12.57;6.70;;;10.20;69.70;;;;;;4998169;28;20026;-77
2023/04/22 05:01:30;;;;;;;10.25;7.03;;;10.30;69.80;;;;;;4997215;28;20092;-77
2023/04/22 05:03:56;;;;;;;8.73;5.50;;;10.20;69.80;;;;;;4997311;28;20029;-77
2023/04/22 05:06:21;;;;;;;12.27;6.53;;;10.20;69.80;;;;;;5004472;28;20037;-77
2023/04/22 05:08:47;;;;;;;11.63;6.80;;;10.20;69.80;;;;;;4999443;28;20197;-77
2023/04/22 05:11:12;;;;;;;14.70;6.70;;;10.30;69.60;;;;;;4995162;28;20249;-76
2023/04/22 05:13:38;;;;;;;10.38;6.35;;;10.30;70.10;;;;;;5006163;28;20018;-75
2023/04/22 05:16:03;;;;;;;12.45;6.53;;;10.30;70.00;;;;;;5002039;28;20337;-76
2023/04/22 05:18:30;;;;;;;9.88;6.20;;;10.30;70.10;;;;;;5001720;28;20080;-76
2023/04/22 05:20:57;;;;;;;10.35;6.28;;;10.30;70.20;;;;;;4999008;28;20033;-75
2023/04/22 05:23:23;;;;;;;9.63;6.85;;;10.40;70.00;;;;;;5001856;28;20465;-75
2023/04/22 05:25:48;;;;;;;11.70;7.22;;;10.50;70.30;;;;;;5007595;28;20116;-76
2023/04/22 05:28:14;;;;;;;10.45;6.55;;;10.70;69.30;;;;;;5005064;28;20084;-76
2023/04/22 05:30:39;;;;;;;11.65;6.68;;;10.60;69.70;;;;;;5001766;28;20061;-75
2023/04/22 05:33:05;;;;;;;11.20;6.90;;;10.70;69.50;;;;;;4995591;28;20042;-75
2023/04/22 05:35:30;;;;;;;10.55;6.45;;;10.70;69.90;;;;;;5002517;28;20415;-74
2023/04/22 05:37:56;;;;;;;10.00;6.63;;;10.80;69.50;;;;;;4995892;28;20392;-74
2023/04/22 05:40:21;;;;;;;12.18;6.18;;;10.90;69.20;;;;;;4999743;28;20026;-74
2023/04/22 05:42:47;;;;;;;10.93;6.53;;;11.00;69.00;;;;;;5001851;28;20044;-74
2023/04/22 05:45:12;;;;;;;13.48;6.28;;;11.10;69.10;;;;;;5010267;28;20471;-74
2023/04/22 05:47:38;;;;;;;8.77;6.15;;;11.20;68.90;;;;;;5003745;28;20113;-75
2023/04/22 05:50:04;;;;;;;12.75;6.60;;;11.40;68.00;;;;;;5001846;28;20022;-74
2023/04/22 05:52:30;;;;;;;10.73;6.38;;;11.60;67.90;;;;;;5025833;28;20458;-75
2023/04/22 05:54:55;;;;;;;9.05;5.20;;;11.70;67.60;;;;;;5008774;28;20037;-75
2023/04/22 05:57:21;;;;;;;10.60;6.00;;;12.00;66.60;;;;;;5009372;28;20048;-75
2023/04/22 05:59:46;;;;;;;10.05;5.63;;;12.10;65.70;;;;;;5011667;28;20045;-75
2023/04/22 06:02:11;;;;;;;12.63;6.00;;;12.30;65.70;;;;;;5014604;28;20126;-75
2023/04/22 06:04:37;;;;;;;8.95;6.25;;;12.30;65.50;;;;;;5008843;28;20052;-75
2023/04/22 06:07:03;;;;;;;7.78;5.35;;;12.40;65.20;;;;;;5001674;28;20155;-76
2023/04/22 06:09:28;;;;;;;8.85;5.45;;;12.50;65.40;;;;;;5007856;28;20030;-76
2023/04/22 06:11:53;;;;;;;9.70;5.80;;;12.60;64.40;;;;;;5007766;28;20026;-76
2023/04/22 06:14:19;;;;;;;11.32;6.18;;;12.70;64.60;;;;;;5005584;28;20072;-76
2023/04/22 06:16:44;;;;;;;9.48;5.88;;;12.80;64.50;;;;;;5015626;28;20038;-76
2023/04/22 06:19:10;;;;;;;10.43;6.00;;;12.90;63.40;;;;;;5002017;28;20032;-76
2023/04/22 06:21:38;;;;;;;11.68;5.85;;;12.90;63.50;;;;;;5005785;28;20092;-76
2023/04/22 06:24:04;;;;;;;11.10;6.22;;;13.10;63.40;;;;;;5001493;28;20425;-76
2023/04/22 06:26:30;;;;;;;9.07;5.88;;;13.10;62.60;;;;;;5013179;28;20105;-76
2023/04/22 06:28:55;;;;;;;9.30;5.90;;;13.20;62.60;;;;;;4996340;28;20149;-77
2023/04/22 06:31:21;;;;;;;9.88;5.60;;;13.20;63.30;;;;;;5004141;28;20082;-78
2023/04/22 06:33:46;;;;;;;8.93;5.65;;;13.40;62.60;;;;;;5005512;28;20458;-77
2023/04/22 06:36:13;;;;;;;9.55;5.90;;;13.60;62.30;;;;;;5003224;28;20075;-79
2023/04/22 06:38:38;;;;;;;11.13;5.72;;;13.60;62.10;;;;;;5005727;28;20801;-79
2023/04/22 06:41:04;;;;;;;9.95;5.32;;;13.80;61.40;;;;;;4997680;28;20156;-80
2023/04/22 06:43:29;;;;;;;13.15;5.63;;;13.80;61.00;;;;;;5009018;28;20037;-79
2023/04/22 06:45:54;;;;;;;10.75;5.15;;;14.00;61.00;;;;;;5006558;28;20188;-80
2023/04/22 06:48:20;;;;;;;11.07;5.60;;;14.10;60.70;;;;;;4997291;28;20081;-80
2023/04/22 06:50:45;;;;;;;9.65;5.53;;;14.10;60.90;;;;;;5006657;28;20529;-76
2023/04/22 06:53:11;;;;;;;11.25;6.20;;;14.30;61.60;;;;;;5008837;28;20045;-76
2023/04/22 06:55:36;;;;;;;9.98;5.70;;;14.30;61.90;;;;;;5023243;28;20053;-76
2023/04/22 06:58:02;;;;;;;11.95;5.70;;;14.60;60.40;;;;;;5010471;28;20525;-76
2023/04/22 07:00:28;;;;;;;9.85;5.45;;;14.60;60.60;;;;;;5017360;28;20132;-76
2023/04/22 07:02:53;;;;;;;9.52;5.50;;;14.80;59.30;;;;;;5002881;28;20274;-76
2023/04/22 07:05:20;;;;;;;10.38;5.55;;;14.90;58.80;;;;;;5012043;28;20041;-76
2023/04/22 07:07:46;;;;;;;9.75;5.35;;;15.10;58.70;;;;;;5006409;28;20484;-73
2023/04/22 07:10:13;;;;;;;8.93;5.28;;;15.10;59.50;;;;;;5003109;28;20045;-74
2023/04/22 07:12:39;;;;;;;9.60;5.22;;;15.40;58.30;;;;;;5007368;28;20026;-74
2023/04/22 07:15:05;;;;;;;8.88;5.35;;;15.50;57.80;;;;;;5010392;28;20079;-75
2023/04/22 07:17:30;;;;;;;11.13;5.72;;;15.80;57.70;;;;;;5013587;28;20507;-74
2023/04/22 07:19:56;;;;;;;11.00;4.93;;;16.10;55.90;;;;;;5023085;28;20168;-74
2023/04/22 07:22:21;;;;;;;9.68;5.20;;;16.00;56.60;;;;;;5016671;28;20092;-75
2023/04/22 07:24:47;;;;;;;7.30;4.82;;;16.30;57.00;;;;;;5013013;28;20056;-74
2023/04/22 07:27:12;;;;;;;9.27;4.60;;;16.40;56.90;;;;;;5014124;28;20121;-75
2023/04/22 07:29:38;;;;;;;12.43;4.85;;;16.50;55.40;;;;;;5004850;28;20448;-75
2023/04/22 07:32:04;;;;;;;11.27;4.50;;;16.40;55.30;;;;;;4998823;28;20038;-75
2023/04/22 07:34:29;;;;;;;7.00;4.32;;;16.40;56.40;;;;;;4998975;28;20060;-75
2023/04/22 07:36:55;;;;;;;11.43;4.80;;;16.60;55.80;;;;;;5006246;28;20411;-75
2023/04/22 07:39:21;;;;;;;6.38;4.38;;;17.10;54.80;;;;;;5005653;28;20111;-74
2023/04/22 07:41:47;;;;;;;7.88;4.88;;;17.00;54.60;;;;;;5006831;28;20406;-74
2023/04/22 07:44:16;;;;;;;6.45;4.43;;;17.00;54.30;;;;;;5005508;28;20060;-75
2023/04/22 07:46:42;;;;;;;9.48;5.05;;;17.10;54.50;;;;;;5001096;28;20014;-74
2023/04/22 07:49:07;;;;;;;10.00;4.43;;;17.30;54.20;;;;;;5002939;28;20502;-74
2023/04/22 07:51:32;;;;;;;8.57;4.63;;;17.50;53.80;;;;;;4997861;28;20102;-74
2023/04/22 07:53:58;;;;;;;6.68;4.15;;;17.80;53.20;;;;;;5006457;28;20437;-74
2023/04/22 07:56:23;;;;;;;8.73;4.03;;;18.10;52.60;;;;;;5002873;28;20030;-74
2023/04/22 07:58:49;;;;;;;10.27;4.10;;;17.80;52.90;;;;;;5015131;28;20034;-74
2023/04/22 08:01:14;;;;;;;9.25;4.00;;;18.00;52.80;;;;;;5013330;28;20064;-74
2023/04/22 08:03:40;;;;;;;6.47;4.22;;;17.80;53.10;;;;;;4999829;28;20439;-74
2023/04/22 08:06:06;;;;;;;8.52;4.40;;;18.00;51.50;;;;;;5005960;28;20113;-74
2023/04/22 08:08:31;;;;;;;10.45;4.20;;;18.10;51.60;;;;;;4997180;28;20026;-74
2023/04/22 08:10:57;;;;;;;7.07;3.80;;;18.50;52.10;;;;;;5001224;28;20078;-74
2023/04/22 08:13:22;;;;;;;9.75;4.18;;;18.70;50.90;;;;;;5014575;28;20022;-74
2023/04/22 08:15:48;;;;;;;6.93;4.00;;;19.00;51.10;;;;;;5001778;28;20358;-74
2023/04/22 08:18:13;;;;;;;5.68;3.60;;;18.90;50.50;;;;;;5001846;28;20141;-74
2023/04/22 08:20:39;;;;;;;5.13;3.60;;;18.80;51.30;;;;;;5016750;28;20133;-74
2023/04/22 08:23:05;;;;;;;9.18;3.65;;;19.20;51.70;;;;;;5006851;28;20469;-74
2023/04/22 08:25:31;;;;;;;8.52;3.30;;;19.40;51.20;;;;;;5004203;28;20506;-75
2023/04/22 08:27:57;;;;;;;7.05;3.90;;;19.10;51.70;;;;;;5001860;28;20093;-74
2023/04/22 08:30:22;;;;;;;6.50;4.10;;;19.30;49.30;;;;;;5000539;28;20023;-75
2023/04/22 08:32:48;;;;;;;6.75;3.70;;;19.30;49.50;;;;;;4996252;28;20103;-76
2023/04/22 08:35:13;;;;;;;6.95;3.95;;;19.20;49.70;;;;;;5002847;28;20049;-75
2023/04/22 08:37:40;;;;;;;5.20;3.35;;;19.20;49.30;;;;;;5002673;28;20121;-75
2023/04/22 08:40:07;;;;;;;8.05;3.10;;;19.40;49.90;;;;;;4996939;28;20160;-75
2023/04/22 08:42:33;;;;;;;6.43;3.42;;;19.50;50.20;;;;;;5002417;28;20201;-75
2023/04/22 08:45:00;;;;;;;7.00;3.15;;;19.50;49.10;;;;;;4997575;28;20015;-75
2023/04/22 08:47:27;;;;;;;7.57;3.60;;;19.40;49.50;;;;;;5001244;28;20113;-75
2023/04/22 08:49:54;;;;;;;5.40;3.15;;;19.80;49.10;;;;;;4996909;28;20438;-75
2023/04/22 08:52:20;;;;;;;5.28;3.65;;;19.70;49.40;;;;;;4999218;28;20048;-76
2023/04/22 08:54:45;;;;;;;6.57;3.80;;;19.50;48.30;;;;;;4988560;28;20455;-76
2023/04/22 08:57:12;;;;;;;6.15;3.00;;;19.70;49.30;;;;;;4998714;28;20368;-77
2023/04/22 08:59:38;;;;;;;6.95;3.22;;;20.50;48.40;;;;;;5005544;28;20026;-74
2023/04/22 09:02:05;;;;;;;7.60;3.88;;;20.30;47.50;;;;;;5002704;28;20498;-77
2023/04/22 09:04:31;;;;;;;5.53;3.17;;;20.50;46.80;;;;;;4994613;28;20352;-76
2023/04/22 09:07:00;;;;;;;6.90;3.40;;;20.70;47.30;;;;;;4998038;28;20109;-76
2023/04/22 09:09:27;;;;;;;7.75;3.08;;;20.70;47.10;;;;;;4995105;28;20100;-75
2023/04/22 09:11:52;;;;;;;7.68;3.40;;;21.10;46.10;;;;;;5003632;28;20129;-77
2023/04/22 09:14:18;;;;;;;7.32;3.25;;;21.40;45.40;;;;;;5000761;28;20392;-76
2023/04/22 09:16:48;;;;;;;7.07;3.35;;;21.40;46.00;;;;;;4998440;28;20029;-74
2023/04/22 09:19:14;;;;;;;4.80;2.83;;;21.50;45.10;;;;;;5002520;28;20113;-76
2023/04/22 09:21:40;;;;;;;8.13;3.20;;;21.40;45.90;;;;;;4996128;28;20038;-76
2023/04/22 09:24:08;;;;;;;5.30;3.05;;;21.70;44.60;;;;;;4997283;28;20060;-76
2023/04/22 09:26:37;;;;;;;6.55;3.45;;;22.30;42.30;;;;;;4999803;28;20026;-75
2023/04/22 09:29:08;;;;;;;5.43;2.75;;;22.50;42.40;;;;;;5008122;28;20041;-75
2023/04/22 09:31:34;;;;;;;6.03;2.75;;;22.00;42.70;;;;;;4994888;28;20018;-75
2023/04/22 09:34:00;;;;;;;3.40;2.58;;;22.00;42.50;;;;;;5003763;28;20397;-75
2023/04/22 09:36:33;;;;;;;3.72;2.40;;;21.90;43.30;;;;;;5004408;28;20357;-74
2023/04/22 09:39:03;;;;;;;5.75;2.60;;;21.60;42.70;;;;;;5010918;28;20053;-76
2023/04/22 09:41:30;;;;;;;4.97;2.72;;;21.80;45.00;;;;;;5005456;28;20037;-75
2023/04/22 09:43:57;;;;;;;8.27;3.08;;;22.00;42.80;;;;;;5004283;28;20038;-76
2023/04/22 09:46:24;;;;;;;4.60;2.80;;;22.50;42.90;;;;;;5004329;28;20034;-75
2023/04/22 09:48:50;;;;;;;7.18;2.83;;;22.10;43.10;;;;;;5003552;28;20496;-75
2023/04/22 09:51:16;;;;;;;6.78;3.00;;;22.50;43.60;;;;;;5007548;28;20026;-76
2023/04/22 09:53:42;;;;;;;6.45;2.63;;;22.60;42.80;;;;;;5009455;28;20668;-75
2023/04/22 09:56:08;;;;;;;6.00;2.92;;;22.50;42.50;;;;;;5007729;28;20189;-76
2023/04/22 09:58:38;;;;;;;6.53;3.25;;;22.70;41.60;;;;;;4997615;28;20026;-75
2023/04/22 10:01:03;;;;;;;4.32;2.70;;;22.70;43.30;;;;;;5018019;28;20140;-76
2023/04/22 10:03:29;;;;;;;8.25;3.03;;;22.40;42.40;;;;;;4998263;28;20148;-76
2023/04/22 10:05:57;;;;;;;7.53;2.88;;;22.60;42.50;;;;;;4996821;28;20017;-75
2023/04/22 10:08:22;;;;;;;4.78;2.85;;;22.80;41.00;;;;;;5003771;28;20051;-77
2023/04/22 10:10:48;;;;;;;7.90;3.17;;;22.80;41.00;;;;;;4998569;28;20053;-75
2023/04/22 10:13:13;;;;;;;6.00;3.33;;;22.70;42.00;;;;;;4995095;28;20097;-75
2023/04/22 10:15:40;;;;;;;4.85;2.60;;;22.40;41.70;;;;;;4994783;28;20025;-75
2023/04/22 10:18:10;;;;;;;6.00;2.58;;;22.60;43.30;;;;;;4998860;28;20121;-75
2023/04/22 10:20:38;;;;;;;4.50;2.70;;;22.70;42.80;;;;;;5008262;28;20054;-76
2023/04/22 10:23:05;;;;;;;6.53;2.65;;;22.70;41.80;;;;;;4991186;28;20085;-75
2023/04/22 10:25:31;;;;;;;4.32;2.30;;;23.10;40.50;;;;;;5003674;28;20037;-75
2023/04/22 10:28:09;;;;;;;3.90;1.73;;;22.80;39.60;;;;;;4996284;28;20115;-74
2023/04/22 10:30:37;;;;;;;3.97;1.80;;;22.60;39.50;;;;;;4995087;28;20109;-75
2023/04/22 10:33:26;;;;;;;4.97;2.08;;;22.90;39.20;;;;;;5000100;28;20099;-74
2023/04/22 10:36:18;;;;;;;3.80;2.15;;;22.90;40.00;;;;;;4998658;28;20114;-75
2023/04/22 10:38:52;;;;;;;4.75;2.10;;;22.50;40.50;;;;;;5004903;28;20045;-74
2023/04/22 10:41:32;;;;;;;3.47;2.40;;;23.30;41.60;;;;;;5007113;28;20192;-76
2023/04/22 10:44:00;;;;;;;3.50;2.10;;;23.70;39.10;;;;;;5001357;28;20034;-75
2023/04/22 10:46:36;;;;;;;2.83;1.83;;;23.80;39.90;;;;;;5013308;28;20056;-76
2023/04/22 10:49:12;;;;;;;6.07;2.38;;;23.80;39.90;;;;;;5006048;28;20119;-75
2023/04/22 10:51:39;;;;;;;3.20;1.88;;;24.00;40.10;;;;;;5004190;28;20038;-75
2023/04/22 10:54:06;;;;;;;4.68;2.55;;;24.10;39.40;;;;;;5026242;28;20085;-75
2023/04/22 10:56:31;;;;;;;3.63;1.90;;;24.20;38.50;;;;;;5010655;28;20391;-75
2023/04/22 10:58:57;;;;;;;4.03;1.75;;;24.20;38.50;;;;;;5019983;28;20036;-76
2023/04/22 11:01:26;;;;;;;3.05;1.92;;;24.40;38.60;;;;;;5012951;28;20056;-75
2023/04/22 11:03:51;;;;;;;3.50;2.03;;;23.90;39.90;;;;;;5012526;28;20354;-76
2023/04/22 11:06:21;;;;;;;4.05;2.10;;;23.80;39.00;;;;;;5001233;28;20029;-75
2023/04/22 11:09:06;;;;;;;3.58;1.92;;;24.10;39.10;;;;;;5000161;28;20026;-75
2023/04/22 11:11:31;;;;;;;5.10;1.90;;;24.50;39.50;;;;;;5011566;28;20132;-75
2023/04/22 11:13:57;;;;;;;4.03;1.60;;;24.00;39.60;;;;;;5009371;28;20129;-76
2023/04/22 11:16:22;;;;;;;3.42;1.63;;;24.00;39.00;;;;;;5009450;28;20712;-75
2023/04/22 11:18:48;;;;;;;3.35;1.92;;;24.30;39.80;;;;;;5016057;28;20022;-76
2023/04/22 11:21:15;;;;;;;4.28;1.90;;;24.70;38.10;;;;;;5013017;28;20033;-76
2023/04/22 11:23:51;;;;;;;6.32;2.08;;;24.00;39.70;;;;;;5019424;28;20025;-76
2023/04/22 11:26:17;;;;;;;4.97;2.22;;;24.30;39.50;;;;;;5001190;28;20457;-75
2023/04/22 11:28:46;;;;;;;3.45;1.73;;;24.60;39.70;;;;;;5003195;28;20117;-76
2023/04/22 11:31:13;;;;;;;3.95;1.90;;;25.20;40.20;;;;;;4990430;28;20178;-76
2023/04/22 11:33:40;;;;;;;3.90;1.73;;;25.60;37.00;;;;;;5002130;28;20073;-76
2023/04/22 11:36:14;;;;;;;4.03;1.88;;;25.40;38.20;;;;;;5006120;28;20022;-75
2023/04/22 11:38:40;;;;;;;4.97;1.83;;;25.30;38.20;;;;;;5002934;28;20079;-75
2023/04/22 11:41:06;;;;;;;4.03;2.03;;;25.20;38.80;;;;;;5000973;28;20069;-76
2023/04/22 11:43:31;;;;;;;4.60;2.42;;;25.00;38.40;;;;;;5004102;28;20557;-76
2023/04/22 11:45:57;;;;;;;2.95;1.65;;;24.40;39.30;;;;;;4989063;28;20054;-77
2023/04/22 11:48:23;;;;;;;3.47;1.90;;;24.00;40.30;;;;;;4993081;28;20355;-75
2023/04/22 11:50:48;;;;;;;4.20;1.55;;;23.80;40.40;;;;;;4998501;28;20378;-74
2023/04/22 11:53:16;;;;;;;2.65;1.42;;;24.60;39.80;;;;;;5010909;28;20068;-75
2023/04/22 11:55:44;;;;;;;3.75;1.50;;;25.30;38.50;;;;;;4998672;28;20043;-75
2023/04/22 11:58:15;;;;;;;3.97;1.63;;;25.40;37.40;;;;;;4993908;28;20469;-76
2023/04/22 12:00:46;;;;;;;3.40;1.63;;;25.70;36.30;;;;;;4999183;28;20129;-75
2023/04/22 12:03:14;;;;;;;5.45;1.60;;;25.30;37.60;;;;;;5000748;28;20034;-75
2023/04/22 12:05:46;;;;;;;2.85;1.58;;;25.30;37.80;;;;;;5003579;28;20422;-76
2023/04/22 12:08:13;;;;;;;2.10;1.50;;;25.50;36.90;;;;;;5006586;28;20108;-75
2023/04/22 12:10:45;;;;;;;3.17;1.60;;;25.60;37.20;;;;;;4996648;28;20030;-75
2023/04/22 12:13:22;;;;;;;5.47;1.77;;;25.30;37.60;;;;;;4998082;28;20033;-75
2023/04/22 12:15:53;;;;;;;4.20;1.40;;;25.80;37.40;;;;;;5000742;28;20044;-76
2023/04/22 12:18:32;;;;;;;3.35;1.40;;;26.10;36.80;;;;;;5002153;28;20034;-77
2023/04/22 12:21:06;;;;;;;4.05;1.50;;;26.00;37.70;;;;;;5000290;28;20093;-76
2023/04/22 12:23:56;;;;;;;2.33;1.30;;;26.40;38.00;;;;;;4997076;28;20053;-76
2023/04/22 12:26:24;;;;;;;2.80;1.50;;;26.30;35.50;;;;;;5004024;28;20143;-76
2023/04/22 12:28:50;;;;;;;4.60;1.60;;;26.90;35.50;;;;;;5004286;28;20085;-76
2023/04/22 12:31:17;;;;;;;2.25;1.40;;;27.40;35.60;;;;;;4997124;28;20156;-76
2023/04/22 12:33:43;;;;;;;2.88;1.60;;;26.00;36.70;;;;;;4998138;28;20423;-76
2023/04/22 12:36:09;;;;;;;5.18;1.40;;;25.30;36.00;;;;;;5003252;28;20056;-77
2023/04/22 12:38:35;;;;;;;2.47;1.52;;;26.20;37.20;;;;;;4999813;28;20044;-76
2023/04/22 12:41:02;;;;;;;2.45;1.52;;;26.10;36.00;;;;;;4997064;28;20044;-76
2023/04/22 12:43:27;;;;;;;2.45;1.55;;;25.90;37.00;;;;;;4999563;28;20445;-74
2023/04/22 12:45:53;;;;;;;4.95;1.67;;;25.70;37.10;;;;;;4998102;28;20168;-73